createdAt,value
2023-09-02T00:00:27.803Z,14.88
2023-09-02T00:03:07.884Z,14.91
2023-09-02T00:06:01.848Z,14.92
2023-09-02T00:08:55.871Z,14.92
2023-09-02T00:11:42.839Z,14.93
2023-09-02T00:14:22.843Z,14.94
2023-09-02T00:17:19.557Z,14.94
2023-09-02T00:20:05.890Z,14.93
2023-09-02T00:22:40.009Z,14.94
2023-09-02T00:25:26.838Z,14.95
2023-09-02T00:28:07.863Z,14.96
2023-09-02T00:31:01.872Z,14.97
2023-09-02T00:33:48.845Z,14.95
2023-09-02T00:36:28.889Z,14.93
2023-09-02T00:39:25.862Z,14.92
2023-09-02T00:42:16.884Z,14.91
2023-09-02T00:44:50.000Z,14.91
2023-09-02T00:47:36.905Z,14.87
2023-09-02T00:50:09.994Z,14.86
2023-09-02T00:52:56.906Z,14.87
2023-09-02T00:55:29.991Z,14.89
2023-09-02T00:58:16.882Z,14.90
2023-09-02T01:00:57.893Z,14.92
2023-09-02T01:03:46.980Z,14.91
2023-09-02T01:06:27.869Z,14.89
2023-09-02T01:09:14.889Z,14.87
2023-09-02T01:11:50.400Z,14.86
2023-09-02T01:14:36.884Z,14.87
2023-09-02T01:17:10.070Z,14.88
2023-09-02T01:19:58.884Z,14.87
2023-09-02T01:23:10.885Z,14.88
2023-09-02T01:26:22.897Z,14.86
2023-09-02T01:29:21.916Z,14.86
2023-09-02T01:32:09.867Z,14.84
2023-09-02T01:34:54.122Z,14.85
2023-09-02T01:37:45.957Z,14.85
2023-09-02T01:40:26.353Z,14.83
2023-09-02T01:43:12.896Z,14.81
2023-09-02T01:45:53.911Z,14.80
2023-09-02T01:48:41.916Z,14.82
2023-09-02T01:51:15.997Z,14.82
2023-09-02T01:54:09.922Z,14.83
2023-09-02T01:57:03.905Z,14.81
2023-09-02T01:59:50.936Z,14.80
2023-09-02T02:02:24.140Z,14.78
2023-09-02T02:05:13.932Z,14.79
2023-09-02T02:07:56.100Z,14.80
2023-09-02T02:10:44.984Z,14.78
2023-09-02T02:13:24.942Z,14.77
2023-09-02T02:16:12.999Z,14.81
2023-09-02T02:18:53.920Z,14.80
2023-09-02T02:21:40.983Z,14.82
2023-09-02T02:24:15.732Z,14.83
2023-09-02T02:27:02.946Z,14.82
2023-09-02T02:29:42.938Z,14.81
2023-09-02T02:32:37.929Z,14.85
2023-09-02T02:35:29.919Z,14.84
2023-09-02T02:38:09.954Z,14.83
2023-09-02T02:40:57.917Z,14.83
2023-09-02T02:43:37.913Z,14.85
2023-09-02T02:46:31.913Z,14.84
2023-09-02T02:49:25.916Z,14.85
2023-09-02T02:52:22.453Z,14.87
2023-09-02T02:55:17.923Z,14.86
2023-09-02T02:58:11.958Z,14.88
2023-09-02T03:01:11.944Z,14.87
2023-09-02T03:03:53.916Z,14.89
2023-09-02T03:06:47.918Z,14.87
2023-09-02T03:09:43.944Z,14.87
2023-09-02T03:12:37.923Z,14.87
2023-09-02T03:15:25.927Z,14.89
2023-09-02T03:17:59.126Z,14.89
2023-09-02T03:20:46.916Z,14.90
2023-09-02T03:23:20.593Z,14.91
2023-09-02T03:26:25.940Z,14.91
2023-09-02T03:29:05.917Z,14.87
2023-09-02T03:31:59.933Z,14.86
2023-09-02T03:34:46.920Z,14.83
2023-09-02T03:37:23.038Z,14.82
2023-09-02T03:40:12.925Z,14.81
2023-09-02T03:42:46.082Z,14.78
2023-09-02T03:45:32.936Z,14.76
2023-09-02T03:48:13.018Z,14.76
2023-09-02T03:51:08.938Z,14.75
2023-09-02T03:53:42.819Z,14.75
2023-09-02T03:56:29.947Z,14.75
2023-09-02T03:59:09.940Z,14.75
2023-09-02T04:02:03.936Z,14.72
2023-09-02T04:04:50.955Z,14.70
2023-09-02T04:07:30.947Z,14.71
2023-09-02T04:10:17.952Z,14.70
2023-09-02T04:12:51.040Z,14.68
2023-09-02T04:15:37.943Z,14.64
2023-09-02T04:18:12.186Z,14.63
2023-09-02T04:20:58.938Z,14.63
2023-09-02T04:23:32.043Z,14.64
2023-09-02T04:26:18.948Z,14.64
2023-09-02T04:28:52.056Z,14.65
2023-09-02T04:31:38.964Z,14.67
2023-09-02T04:34:12.074Z,14.67
2023-09-02T04:36:58.964Z,14.69
2023-09-02T04:39:35.334Z,14.69
2023-09-02T04:42:22.648Z,14.69
2023-09-02T04:44:57.671Z,14.67
2023-09-02T04:47:43.977Z,14.69
2023-09-02T04:50:23.987Z,14.68
2023-09-02T04:53:18.185Z,14.68
2023-09-02T04:56:11.969Z,14.67
2023-09-02T04:59:05.970Z,14.67
2023-09-02T05:01:59.999Z,14.67
2023-09-02T05:04:53.985Z,14.68
2023-09-02T05:07:47.960Z,14.68
2023-09-02T05:10:34.981Z,14.70
2023-09-02T05:13:14.980Z,14.72
2023-09-02T05:16:09.092Z,14.72
2023-09-02T05:19:03.018Z,14.74
2023-09-02T05:21:56.998Z,14.76
2023-09-02T05:24:43.982Z,14.78
2023-09-02T05:27:18.103Z,14.80
2023-09-02T05:30:05.024Z,14.80
2023-09-02T05:32:38.113Z,14.80
2023-09-02T05:35:25.023Z,14.81
2023-09-02T05:37:58.871Z,14.84
2023-09-02T05:40:52.041Z,14.87
2023-09-02T05:43:37.034Z,14.90
2023-09-02T05:46:24.023Z,14.91
2023-09-02T05:48:57.113Z,14.94
2023-09-02T05:51:43.995Z,14.97
2023-09-02T05:54:24.026Z,14.98
2023-09-02T05:57:18.008Z,15.02
2023-09-02T06:00:12.041Z,15.06
2023-09-02T06:02:59.063Z,15.07
2023-09-02T06:05:38.999Z,15.09
2023-09-02T06:08:33.031Z,15.09
2023-09-02T06:11:27.013Z,15.09
2023-09-02T06:14:14.041Z,15.11
2023-09-02T06:16:47.147Z,15.16
2023-09-02T06:19:34.055Z,15.17
2023-09-02T06:22:14.027Z,15.22
2023-09-02T06:25:09.009Z,15.26
2023-09-02T06:27:56.031Z,15.30
2023-09-02T06:30:29.177Z,15.33
2023-09-02T06:33:16.396Z,15.38
2023-09-02T06:35:50.122Z,15.43
2023-09-02T06:38:38.040Z,15.48
2023-09-02T06:41:18.162Z,15.52
2023-09-02T06:44:05.015Z,15.57
2023-09-02T06:46:46.040Z,15.61
2023-09-02T06:49:43.031Z,15.66
2023-09-02T06:52:37.038Z,15.71
2023-09-02T06:55:31.024Z,15.75
2023-09-02T06:58:25.035Z,15.78
2023-09-02T07:01:12.107Z,15.81
2023-09-02T07:03:52.153Z,15.87
2023-09-02T07:06:46.058Z,15.94
2023-09-02T07:09:33.037Z,16.10
2023-09-02T07:12:06.197Z,16.23
2023-09-02T07:14:53.041Z,16.39
2023-09-02T07:17:36.076Z,16.58
2023-09-02T07:20:30.038Z,16.73
2023-09-02T07:23:24.046Z,16.87
2023-09-02T07:26:12.067Z,17.03
2023-09-02T07:28:45.174Z,17.20
2023-09-02T07:31:32.099Z,17.38
2023-09-02T07:34:12.082Z,17.54
2023-09-02T07:37:06.036Z,17.71
2023-09-02T07:39:53.076Z,17.92
2023-09-02T07:42:33.037Z,18.11
2023-09-02T07:45:27.078Z,18.30
2023-09-02T07:48:21.056Z,18.48
2023-09-02T07:51:15.104Z,18.65
2023-09-02T07:54:05.062Z,18.84
2023-09-02T07:56:38.149Z,19.02
2023-09-02T07:59:25.123Z,19.17
2023-09-02T08:01:58.158Z,19.34
2023-09-02T08:04:45.081Z,19.46
2023-09-02T08:07:18.293Z,19.63
2023-09-02T08:10:05.120Z,19.71
2023-09-02T08:12:45.100Z,19.82
2023-09-02T08:15:39.105Z,19.95
2023-09-02T08:18:26.078Z,20.06
2023-09-02T08:20:59.179Z,20.18
2023-09-02T08:23:46.103Z,20.28
2023-09-02T08:26:21.186Z,20.33
2023-09-02T08:29:08.090Z,20.41
2023-09-02T08:31:41.218Z,20.53
2023-09-02T08:34:28.081Z,20.65
2023-09-02T08:37:01.236Z,20.79
2023-09-02T08:39:48.114Z,20.84
2023-09-02T08:42:25.170Z,20.83
2023-09-02T08:45:17.103Z,20.75
2023-09-02T08:47:53.213Z,20.74
2023-09-02T08:50:40.130Z,20.78
2023-09-02T08:53:14.192Z,20.82
2023-09-02T08:56:09.117Z,20.89
2023-09-02T08:59:04.110Z,20.90
2023-09-02T09:02:00.107Z,20.87
2023-09-02T09:04:48.132Z,20.98
2023-09-02T09:07:31.120Z,21.13
2023-09-02T09:10:22.127Z,21.21
2023-09-02T09:13:02.204Z,21.22
2023-09-02T09:15:49.267Z,21.23
2023-09-02T09:18:31.154Z,21.24
2023-09-02T09:21:18.113Z,21.23
2023-09-02T09:23:58.151Z,21.35
2023-09-02T09:26:46.134Z,21.44
2023-09-02T09:29:25.407Z,21.53
2023-09-02T09:32:17.155Z,21.51
2023-09-02T09:34:52.301Z,21.45
2023-09-02T09:38:00.141Z,21.39
2023-09-02T09:40:42.294Z,21.36
2023-09-02T09:43:35.177Z,21.29
2023-09-02T09:46:08.353Z,21.26
2023-09-02T09:48:56.139Z,21.26
2023-09-02T09:51:37.160Z,21.24
2023-09-02T09:54:31.182Z,21.20
2023-09-02T09:57:29.149Z,21.12
2023-09-02T10:00:29.145Z,21.03
2023-09-02T10:03:17.447Z,20.93
2023-09-02T10:05:51.278Z,20.83
2023-09-02T10:08:56.196Z,20.70
2023-09-02T10:11:30.323Z,20.61
2023-09-02T10:14:18.168Z,20.55
2023-09-02T10:16:53.274Z,20.58
2023-09-02T10:19:42.194Z,20.61
2023-09-02T10:22:29.202Z,20.61
2023-09-02T10:25:36.176Z,20.57
2023-09-02T10:28:35.164Z,20.53
2023-09-02T10:31:30.181Z,20.51
2023-09-02T10:34:29.352Z,20.47
2023-09-02T10:37:21.161Z,20.47
2023-09-02T10:40:05.162Z,20.45
2023-09-02T10:43:00.190Z,20.40
2023-09-02T10:48:43.177Z,20.36
2023-09-02T10:51:17.352Z,20.36
2023-09-02T10:54:05.174Z,20.37
2023-09-02T10:56:48.163Z,20.38
2023-09-02T10:59:43.186Z,20.39
2023-09-02T11:03:00.384Z,20.38
2023-09-02T11:05:42.166Z,20.38
2023-09-02T11:08:54.275Z,20.38
2023-09-02T11:11:35.174Z,20.38
2023-09-02T11:14:22.185Z,20.39
2023-09-02T11:17:34.338Z,20.40
2023-09-02T11:20:27.217Z,20.39
2023-09-02T11:23:10.676Z,20.39
2023-09-02T11:26:21.208Z,20.39
2023-09-02T11:29:01.194Z,20.40
2023-09-02T11:32:09.213Z,20.38
2023-09-02T11:34:57.202Z,20.36
2023-09-02T11:37:38.397Z,20.31
2023-09-02T11:40:26.261Z,20.27
2023-09-02T11:43:16.469Z,20.20
2023-09-02T11:46:11.280Z,20.15
2023-09-02T11:49:05.209Z,20.12
2023-09-02T11:51:52.225Z,20.08
2023-09-02T11:54:25.425Z,20.07
2023-09-02T11:57:12.199Z,20.03
2023-09-02T11:59:45.318Z,20.01
2023-09-02T12:02:33.268Z,19.98
2023-09-02T12:05:06.447Z,19.99
2023-09-02T12:07:55.533Z,19.99
2023-09-02T12:10:29.405Z,19.99
2023-09-02T12:13:16.515Z,19.98
2023-09-02T12:15:58.476Z,19.96
2023-09-02T12:18:45.263Z,20.00
2023-09-02T12:21:19.329Z,20.03
2023-09-02T12:24:06.228Z,20.05
2023-09-02T12:26:39.364Z,20.04
2023-09-02T12:29:27.249Z,20.03
2023-09-02T12:32:06.394Z,20.01
2023-09-02T12:34:53.250Z,20.00
2023-09-02T12:37:35.238Z,19.97
2023-09-02T12:40:30.312Z,19.96
2023-09-02T12:43:24.280Z,19.95
2023-09-02T12:46:11.326Z,19.91
2023-09-02T12:48:45.538Z,19.88
2023-09-02T12:51:35.258Z,19.84
2023-09-02T12:54:19.519Z,19.79
2023-09-02T12:57:06.299Z,19.76
2023-09-02T12:59:46.250Z,19.74
2023-09-02T13:02:41.324Z,19.73
2023-09-02T13:05:28.309Z,19.71
2023-09-02T13:08:01.460Z,19.72
2023-09-02T13:10:48.301Z,19.74
2023-09-02T13:13:24.405Z,19.76
2023-09-02T13:16:11.305Z,19.74
2023-09-02T13:18:44.436Z,19.73
2023-09-02T13:21:31.259Z,19.70
2023-09-02T13:24:05.432Z,19.69
2023-09-02T13:26:53.261Z,19.66
2023-09-02T13:29:31.411Z,19.66
2023-09-02T13:32:32.332Z,19.64
2023-09-02T13:35:36.307Z,19.65
2023-09-02T13:38:38.376Z,19.66
2023-09-02T13:41:33.319Z,19.66
2023-09-02T13:44:27.277Z,19.65
2023-09-02T13:47:14.307Z,19.61
2023-09-02T13:49:51.437Z,19.60
2023-09-02T13:52:39.284Z,19.58
2023-09-02T13:55:13.409Z,19.56
2023-09-02T13:58:01.303Z,19.55
2023-09-02T14:00:37.510Z,19.55
2023-09-02T14:03:27.024Z,19.53
2023-09-02T14:06:09.285Z,19.54
2023-09-02T14:09:03.370Z,19.52
2023-09-02T14:11:57.274Z,19.49
2023-09-02T14:14:54.310Z,19.48
2023-09-02T14:17:41.329Z,19.46
2023-09-02T14:20:22.309Z,19.45
2023-09-02T14:23:09.347Z,19.43
2023-09-02T14:25:49.309Z,19.41
2023-09-02T14:28:43.307Z,19.38
2023-09-02T14:31:38.309Z,19.39
2023-09-02T14:34:25.309Z,19.40
2023-09-02T14:37:05.319Z,19.39
2023-09-02T14:40:00.310Z,19.37
2023-09-02T14:42:54.328Z,19.36
2023-09-02T14:45:48.378Z,19.37
2023-09-02T14:48:43.344Z,19.40
2023-09-02T14:51:30.328Z,19.40
2023-09-02T14:54:12.444Z,19.41
2023-09-02T14:57:06.360Z,19.42
2023-09-02T14:59:55.307Z,19.43
2023-09-02T15:02:57.415Z,19.45
2023-09-02T15:05:51.327Z,19.43
2023-09-02T15:08:42.330Z,19.41
2023-09-02T15:11:15.457Z,19.40
2023-09-02T15:14:03.550Z,19.40
2023-09-02T15:16:36.522Z,19.39
2023-09-02T15:19:27.305Z,19.35
2023-09-02T15:22:07.489Z,19.32
2023-09-02T15:24:54.332Z,19.29
2023-09-02T15:27:36.409Z,19.27
2023-09-02T15:30:30.412Z,19.22
2023-09-02T15:33:25.296Z,19.20
2023-09-02T15:36:23.369Z,19.18
2023-09-02T15:38:59.005Z,19.17
2023-09-02T15:41:49.605Z,19.14
2023-09-02T15:44:29.373Z,19.14
2023-09-02T15:47:27.346Z,19.16
2023-09-02T15:50:15.288Z,19.14
2023-09-02T15:52:59.302Z,19.14
2023-09-02T15:55:53.437Z,19.11
2023-09-02T15:58:47.375Z,19.10
2023-09-02T16:01:34.482Z,19.08
2023-09-02T16:04:14.402Z,19.07
2023-09-02T16:07:10.442Z,19.05
2023-09-02T16:10:04.404Z,19.01
2023-09-02T16:12:58.406Z,18.99
2023-09-02T16:15:45.451Z,18.95
2023-09-02T16:18:18.450Z,18.95
2023-09-02T16:21:08.094Z,18.90
2023-09-02T16:23:48.411Z,18.89
2023-09-02T16:26:42.413Z,18.88
2023-09-02T16:29:37.429Z,18.87
2023-09-02T16:32:24.557Z,18.83
2023-09-02T16:34:59.535Z,18.82
2023-09-02T16:37:48.415Z,18.81
2023-09-02T16:40:22.556Z,18.78
2023-09-02T16:43:12.410Z,18.77
2023-09-02T16:45:45.522Z,18.76
2023-09-02T16:48:32.416Z,18.73
2023-09-02T16:51:08.723Z,18.71
2023-09-02T16:53:55.418Z,18.68
2023-09-02T16:56:28.618Z,18.65
2023-09-02T16:59:15.435Z,18.61
2023-09-02T17:01:55.440Z,18.57
2023-09-02T17:04:49.474Z,18.55
2023-09-02T17:07:43.437Z,18.50
2023-09-02T17:10:33.426Z,18.47
2023-09-02T17:13:08.307Z,18.43
2023-09-02T17:15:55.437Z,18.40
2023-09-02T17:18:35.414Z,18.35
2023-09-02T17:21:25.425Z,18.27
2023-09-02T17:24:05.429Z,18.21
2023-09-02T17:27:09.215Z,18.15
2023-09-02T17:29:56.410Z,18.10
2023-09-02T17:32:36.504Z,18.03
2023-09-02T17:35:16.480Z,17.98
2023-09-02T17:38:10.444Z,17.90
2023-09-02T17:40:57.491Z,17.85
2023-09-02T17:43:31.670Z,17.81
2023-09-02T17:46:18.654Z,17.78
2023-09-02T17:48:55.065Z,17.73
2023-09-02T17:51:41.480Z,17.69
2023-09-02T17:54:21.468Z,17.63
2023-09-02T17:57:15.493Z,17.58
2023-09-02T18:00:09.547Z,17.49
2023-09-02T18:03:04.559Z,17.45
2023-09-02T18:05:59.493Z,17.42
2023-09-02T18:08:59.213Z,17.38
2023-09-02T18:11:46.464Z,17.34
2023-09-02T18:14:19.567Z,17.31
2023-09-02T18:17:38.593Z,17.24
2023-09-02T18:20:19.488Z,17.19
2023-09-02T18:23:14.466Z,17.16
2023-09-02T18:26:08.472Z,17.13
2023-09-02T18:29:03.527Z,17.07
2023-09-02T18:31:52.452Z,17.04
2023-09-02T18:34:25.685Z,17.00
2023-09-02T18:37:12.472Z,16.95
2023-09-02T18:39:53.516Z,16.92
2023-09-02T18:42:48.553Z,16.88
2023-09-02T18:45:35.497Z,16.85
2023-09-02T18:48:08.622Z,16.82
2023-09-02T18:50:58.472Z,16.80
2023-09-02T18:53:39.579Z,16.76
2023-09-02T18:56:35.505Z,16.65
2023-09-02T18:59:22.458Z,16.58
2023-09-02T19:02:02.465Z,16.55
2023-09-02T19:04:56.507Z,16.53
2023-09-02T19:07:51.521Z,16.50
2023-09-02T19:10:38.486Z,16.46
2023-09-02T19:13:20.455Z,16.44
2023-09-02T19:16:14.522Z,16.41
2023-09-02T19:19:08.469Z,16.40
2023-09-02T19:21:56.493Z,16.38
2023-09-02T19:24:38.942Z,16.36
2023-09-02T19:27:32.571Z,16.36
2023-09-02T19:30:27.540Z,16.34
2023-09-02T19:33:14.527Z,16.32
2023-09-02T19:35:47.646Z,16.28
2023-09-02T19:38:34.492Z,16.26
2023-09-02T19:41:15.508Z,16.22
2023-09-02T19:44:02.469Z,16.20
2023-09-02T19:46:47.372Z,16.17
2023-09-02T19:49:34.554Z,16.13
2023-09-02T19:52:15.506Z,16.10
2023-09-02T19:55:09.498Z,16.05
2023-09-02T19:58:03.510Z,16.03
2023-09-02T20:00:58.552Z,16.01
2023-09-02T20:03:52.533Z,15.99
2023-09-02T20:06:48.927Z,15.96
2023-09-02T20:09:44.656Z,15.93
2023-09-02T20:12:31.494Z,15.91
2023-09-02T20:15:11.534Z,15.89
2023-09-02T20:17:58.578Z,15.84
2023-09-02T20:20:32.615Z,15.83
2023-09-02T20:23:19.499Z,15.82
2023-09-02T20:25:59.524Z,15.81
2023-09-02T20:28:47.525Z,15.79
2023-09-02T20:31:24.670Z,15.76
2023-09-02T20:34:13.530Z,15.77
2023-09-02T20:36:53.520Z,15.78
2023-09-02T20:39:40.586Z,15.77
2023-09-02T20:42:13.635Z,15.75
2023-09-02T20:45:00.565Z,15.72
2023-09-02T20:47:33.684Z,15.70
2023-09-02T20:50:21.604Z,15.70
2023-09-02T20:53:01.534Z,15.71
2023-09-02T20:55:55.560Z,15.72
2023-09-02T20:58:42.653Z,15.71
2023-09-02T21:01:22.634Z,15.68
2023-09-02T21:04:18.262Z,15.67
2023-09-02T21:07:12.551Z,15.64
2023-09-02T21:10:06.549Z,15.61
2023-09-02T21:13:00.549Z,15.61
2023-09-02T21:15:54.561Z,15.64
2023-09-02T21:18:48.556Z,15.65
2023-09-02T21:21:42.567Z,15.64
2023-09-02T21:24:29.534Z,15.61
2023-09-02T21:27:03.085Z,15.58
2023-09-02T21:29:49.531Z,15.60
2023-09-02T21:32:29.636Z,15.59
2023-09-02T21:35:23.564Z,15.57
2023-09-02T21:38:17.630Z,15.58
2023-09-02T21:41:12.542Z,15.55
2023-09-02T21:43:45.651Z,15.55
2023-09-02T21:46:32.577Z,15.53
2023-09-02T21:49:05.644Z,15.48
2023-09-02T21:51:52.556Z,15.46
2023-09-02T21:54:25.672Z,15.46
2023-09-02T21:57:12.579Z,15.47
2023-09-02T21:59:52.570Z,15.46
2023-09-02T22:02:39.633Z,15.45
2023-09-02T22:05:19.594Z,15.43
2023-09-02T22:08:15.580Z,15.39
2023-09-02T22:11:03.576Z,15.36
2023-09-02T22:13:36.942Z,15.32
2023-09-02T22:16:23.647Z,15.30
2023-09-02T22:19:09.605Z,15.28
2023-09-02T22:22:05.561Z,15.25
2023-09-02T22:24:59.584Z,15.27
2023-09-02T22:27:46.563Z,15.30
2023-09-02T22:30:19.867Z,15.27
2023-09-02T22:33:06.653Z,15.25
2023-09-02T22:35:47.599Z,15.24
2023-09-02T22:41:31.557Z,15.23
2023-09-02T22:44:11.607Z,15.24
2023-09-02T22:46:58.592Z,15.24
2023-09-02T22:49:32.702Z,15.23
2023-09-02T22:52:19.603Z,15.23
2023-09-02T22:54:52.684Z,15.21
2023-09-02T22:57:46.623Z,15.16
2023-09-02T23:00:40.587Z,15.13
2023-09-02T23:03:34.619Z,15.14
2023-09-02T23:06:21.608Z,15.15
2023-09-02T23:09:04.636Z,15.17
2023-09-02T23:11:58.595Z,15.18
2023-09-02T23:14:52.589Z,15.17
2023-09-02T23:17:41.649Z,15.15
2023-09-02T23:20:15.692Z,15.16
2023-09-02T23:23:02.621Z,15.16
2023-09-02T23:25:35.702Z,15.17
2023-09-02T23:28:22.881Z,15.15
2023-09-02T23:31:03.837Z,15.14
2023-09-02T23:33:50.627Z,15.11
2023-09-02T23:36:24.241Z,15.14
2023-09-02T23:39:10.607Z,15.13
2023-09-02T23:41:50.624Z,15.13
2023-09-02T23:44:44.621Z,15.12
2023-09-02T23:47:31.673Z,15.12
2023-09-02T23:50:11.643Z,15.10
2023-09-02T23:52:58.612Z,15.05
2023-09-02T23:55:31.731Z,15.02
2023-09-02T23:58:18.943Z,15.01
